Terminal Aerodrome Forecast
Issued by NWS

Home | Current Version | Previous Version | Text Only | Print | Product List | Glossary On
Versions: 1 2 3 4 5 6 7 8 9 10 11 12 13 14 15 16 17
000
FTUS46 KMTR 191700 CCA
TAFMRY
TAF COR
KMRY 191745Z 1918/2018 12005KT P6SM FEW040 OVC050
     FM191900 VRB04KT P6SM -SHRA SCT030 OVC040
     FM200200 11003KT P6SM -RA SCT020 OVC040
     FM200500 11003KT P6SM VCSH SCT025 BKN050
     FM201200 10003KT P6SM FEW020 SCT040 BKN080=

USA.gov is the U.S. government's official web portal to all federal, state and local government web resources and services.